Zion City, Louisiana
Current Conditions -  °F | °C
As of 6:53 PM on Saturday 22 Nov 2014 (Local Time) from KBTR Reporting Station
Overcast Overcast  
Wind Chill: 64°   Ceiling: 1200
Heat Index: 64°   Visibility: 10mi
Dew Point: 58°   Wind: 13mph
Humidity: 80%   Direction: 100°E
Pressure: 29.99"   Gusts: NA
Location:  30.5323°N, 91.1193°W
Report Text: KBTR 230053Z 10011KT 10SM OVC012 18/14 A2999 RMK AO2 SLP154 T01780144
Loading
Personal Weather Stations






























Interactive Weather Map New forecast layout! Learn more

10-Day Weather Forecast

Advertisements
Track Severe Weather on mobile